createdAt,value
2023-05-15T00:00:52.653Z,1006.16
2023-05-15T00:01:52.908Z,1006.16
2023-05-15T00:02:53.360Z,1006.15
2023-05-15T00:03:53.530Z,1006.10
2023-05-15T00:04:53.885Z,1006.10
2023-05-15T00:05:54.106Z,1006.09
2023-05-15T00:06:54.355Z,1006.09
2023-05-15T00:07:54.607Z,1006.06
2023-05-15T00:08:54.861Z,1006.06
2023-05-15T00:09:55.093Z,1006.06
2023-05-15T00:11:01.444Z,1006.02
2023-05-15T00:11:56.673Z,1005.98
2023-05-15T00:12:56.044Z,1005.95
2023-05-15T00:13:56.298Z,1005.96
2023-05-15T00:14:56.576Z,1005.94
2023-05-15T00:15:56.801Z,1005.90
2023-05-15T00:16:57.146Z,1005.87
2023-05-15T00:17:57.536Z,1005.87
2023-05-15T00:18:57.894Z,1005.86
2023-05-15T00:19:58.103Z,1005.84
2023-05-15T00:20:58.355Z,1005.81
2023-05-15T00:21:58.704Z,1005.82
2023-05-15T00:22:58.931Z,1005.75
2023-05-15T00:23:59.200Z,1005.76
2023-05-15T00:24:59.474Z,1005.74
2023-05-15T00:25:59.682Z,1005.74
2023-05-15T00:27:00.024Z,1005.74
2023-05-15T00:28:00.296Z,1005.72
2023-05-15T00:29:00.592Z,1005.73
2023-05-15T00:30:00.808Z,1005.70
2023-05-15T00:31:01.191Z,1005.71
2023-05-15T00:32:01.432Z,1005.72
2023-05-15T00:33:01.744Z,1005.72
2023-05-15T00:34:02.025Z,1005.72
2023-05-15T00:35:02.277Z,1005.73
2023-05-15T00:36:02.508Z,1005.70
2023-05-15T00:37:02.743Z,1005.71
2023-05-15T00:38:03.097Z,1005.71
2023-05-15T00:39:03.348Z,1005.66
2023-05-15T00:40:03.589Z,1005.66
2023-05-15T00:41:03.947Z,1005.64
2023-05-15T00:42:04.212Z,1005.63
2023-05-15T00:43:04.586Z,1005.60
2023-05-15T00:44:04.848Z,1005.59
2023-05-15T00:45:05.105Z,1005.61
2023-05-15T00:46:05.334Z,1005.55
2023-05-15T00:47:05.752Z,1005.57
2023-05-15T00:48:06.038Z,1005.55
2023-05-15T00:49:06.257Z,1005.51
2023-05-15T00:50:06.509Z,1005.50
2023-05-15T00:51:06.867Z,1005.50
2023-05-15T00:52:07.106Z,1005.48
2023-05-15T00:53:07.365Z,1005.48
2023-05-15T00:54:07.732Z,1005.49
2023-05-15T00:55:07.994Z,1005.47
2023-05-15T00:56:08.243Z,1005.47
2023-05-15T00:57:08.516Z,1005.47
2023-05-15T00:58:08.761Z,1005.50
2023-05-15T00:59:09.041Z,1005.52
2023-05-15T01:00:09.278Z,1005.48
2023-05-15T01:01:09.669Z,1005.48
2023-05-15T01:02:09.920Z,1005.48
2023-05-15T01:03:10.189Z,1005.46
2023-05-15T01:04:10.429Z,1005.44
2023-05-15T01:05:10.668Z,1005.45
2023-05-15T01:06:11.052Z,1005.43
2023-05-15T01:07:11.303Z,1005.43
2023-05-15T01:08:11.544Z,1005.44
2023-05-15T01:09:11.928Z,1005.41
2023-05-15T01:10:12.165Z,1005.43
2023-05-15T01:11:12.513Z,1005.40
2023-05-15T01:12:12.902Z,1005.39
2023-05-15T01:13:13.136Z,1005.38
2023-05-15T01:14:13.409Z,1005.37
2023-05-15T01:15:13.640Z,1005.33
2023-05-15T01:16:14.001Z,1005.35
2023-05-15T01:17:14.373Z,1005.34
2023-05-15T01:18:14.919Z,1005.35
2023-05-15T01:19:15.172Z,1005.32
2023-05-15T01:20:15.227Z,1005.27
2023-05-15T01:21:15.608Z,1005.30
2023-05-15T01:22:15.842Z,1005.31
2023-05-15T01:23:16.199Z,1005.27
2023-05-15T01:24:16.489Z,1005.29
2023-05-15T01:25:16.741Z,1005.25
2023-05-15T01:26:17.096Z,1005.26
2023-05-15T01:27:17.353Z,1005.21
2023-05-15T01:28:17.595Z,1005.25
2023-05-15T01:29:17.979Z,1005.23
2023-05-15T01:30:18.233Z,1005.23
2023-05-15T01:31:18.604Z,1005.20
2023-05-15T01:32:19.539Z,1005.22
2023-05-15T01:33:19.088Z,1005.24
2023-05-15T01:34:19.464Z,1005.24
2023-05-15T01:35:19.721Z,1005.25
2023-05-15T01:36:20.064Z,1005.28
2023-05-15T01:37:20.435Z,1005.29
2023-05-15T01:38:20.665Z,1005.25
2023-05-15T01:39:21.060Z,1005.26
2023-05-15T01:40:21.309Z,1005.29
2023-05-15T01:41:21.653Z,1005.30
2023-05-15T01:42:21.910Z,1005.27
2023-05-15T01:43:22.194Z,1005.26
2023-05-15T01:44:22.502Z,1005.24
2023-05-15T01:45:23.050Z,1005.24
2023-05-15T01:46:23.088Z,1005.24
2023-05-15T01:47:23.384Z,1005.25
2023-05-15T01:48:23.587Z,1005.20
2023-05-15T01:49:23.971Z,1005.16
2023-05-15T01:50:24.206Z,1005.16
2023-05-15T01:51:24.457Z,1005.15
2023-05-15T01:52:24.705Z,1005.14
2023-05-15T01:53:24.988Z,1005.12
2023-05-15T01:54:25.252Z,1005.12
2023-05-15T01:55:25.810Z,1005.09
2023-05-15T01:56:25.765Z,1005.11
2023-05-15T01:57:26.172Z,1005.07
2023-05-15T01:58:26.302Z,1005.08
2023-05-15T01:59:26.729Z,1005.09
2023-05-15T02:00:26.980Z,1005.06
2023-05-15T02:01:27.300Z,1005.09
2023-05-15T02:02:27.550Z,1005.02
2023-05-15T02:03:27.876Z,1005.03
2023-05-15T02:04:28.167Z,1005.03
2023-05-15T02:05:28.490Z,1005.01
2023-05-15T02:06:28.756Z,1005.02
2023-05-15T02:07:29.018Z,1005.02
2023-05-15T02:08:29.260Z,1005.03
2023-05-15T02:09:29.630Z,1005.01
2023-05-15T02:10:30.127Z,1005.03
2023-05-15T02:11:30.234Z,1005.02
2023-05-15T02:12:30.518Z,1005.06
2023-05-15T02:13:30.850Z,1005.00
2023-05-15T02:14:31.174Z,1005.02
2023-05-15T02:15:31.459Z,1005.00
2023-05-15T02:16:31.779Z,1005.00
2023-05-15T02:17:32.077Z,1004.98
2023-05-15T02:18:32.321Z,1004.96
2023-05-15T02:19:32.597Z,1004.93
2023-05-15T02:20:32.857Z,1004.92
2023-05-15T02:21:33.176Z,1004.94
2023-05-15T02:22:33.506Z,1004.89
2023-05-15T02:23:33.779Z,1004.89
2023-05-15T02:24:34.110Z,1004.88
2023-05-15T02:25:34.393Z,1004.87
2023-05-15T02:26:34.651Z,1004.86
2023-05-15T02:27:35.033Z,1004.85
2023-05-15T02:28:35.287Z,1004.84
2023-05-15T02:29:35.674Z,1004.83
2023-05-15T02:30:36.988Z,1004.82
2023-05-15T02:31:36.272Z,1004.82
2023-05-15T02:32:36.574Z,1004.79
2023-05-15T02:33:36.814Z,1004.80
2023-05-15T02:34:37.076Z,1004.77
2023-05-15T02:35:37.381Z,1004.73
2023-05-15T02:36:37.657Z,1004.71
2023-05-15T02:37:37.924Z,1004.70
2023-05-15T02:38:38.197Z,1004.68
2023-05-15T02:39:38.468Z,1004.65
2023-05-15T02:40:38.740Z,1004.66
2023-05-15T02:41:39.005Z,1004.63
2023-05-15T02:42:39.275Z,1004.61
2023-05-15T02:43:39.551Z,1004.61
2023-05-15T02:44:39.856Z,1004.58
2023-05-15T02:45:40.123Z,1004.61
2023-05-15T02:46:40.350Z,1004.59
2023-05-15T02:47:40.867Z,1004.60
2023-05-15T02:48:41.056Z,1004.61
2023-05-15T02:49:41.426Z,1004.59
2023-05-15T02:50:41.717Z,1004.61
2023-05-15T02:51:41.996Z,1004.60
2023-05-15T02:52:42.232Z,1004.57
2023-05-15T02:53:42.619Z,1004.57
2023-05-15T02:54:43.907Z,1004.56
2023-05-15T02:55:43.178Z,1004.54
2023-05-15T02:56:43.427Z,1004.52
2023-05-15T02:57:43.693Z,1004.52
2023-05-15T02:58:43.959Z,1004.53
2023-05-15T02:59:44.251Z,1004.55
2023-05-15T03:00:44.491Z,1004.52
2023-05-15T03:01:44.808Z,1004.50
2023-05-15T03:02:45.065Z,1004.52
2023-05-15T03:03:45.318Z,1004.54
2023-05-15T03:04:46.064Z,1004.53
2023-05-15T03:05:45.881Z,1004.49
2023-05-15T03:06:46.176Z,1004.49
2023-05-15T03:07:46.424Z,1004.50
2023-05-15T03:08:46.666Z,1004.49
2023-05-15T03:09:47.112Z,1004.49
2023-05-15T03:10:47.327Z,1004.50
2023-05-15T03:11:47.716Z,1004.47
2023-05-15T03:12:48.000Z,1004.45
2023-05-15T03:13:48.260Z,1004.44
2023-05-15T03:14:48.535Z,1004.46
2023-05-15T03:15:48.811Z,1004.42
2023-05-15T03:16:49.148Z,1004.46
2023-05-15T03:17:49.584Z,1004.46
2023-05-15T03:18:49.866Z,1004.44
2023-05-15T03:19:50.102Z,1004.44
2023-05-15T03:20:50.363Z,1004.45
2023-05-15T03:21:50.693Z,1004.45
2023-05-15T03:22:51.102Z,1004.47
2023-05-15T03:23:51.379Z,1004.46
2023-05-15T03:24:51.614Z,1004.48
2023-05-15T03:25:51.989Z,1004.47
2023-05-15T03:26:52.249Z,1004.43
2023-05-15T03:27:52.633Z,1004.43
2023-05-15T03:28:52.891Z,1004.40
2023-05-15T03:29:53.280Z,1004.38
2023-05-15T03:30:53.557Z,1004.33
2023-05-15T03:31:53.934Z,1004.33
2023-05-15T03:32:54.258Z,1004.33
2023-05-15T03:33:54.545Z,1004.33
2023-05-15T03:34:54.825Z,1004.32
2023-05-15T03:35:55.069Z,1004.31
2023-05-15T03:36:55.357Z,1004.29
2023-05-15T03:37:55.698Z,1004.29
2023-05-15T03:38:55.933Z,1004.30
2023-05-15T03:39:56.308Z,1004.26
2023-05-15T03:40:56.563Z,1004.23
2023-05-15T03:41:56.835Z,1004.25
2023-05-15T03:42:57.174Z,1004.25
2023-05-15T03:43:57.542Z,1004.23
2023-05-15T03:44:57.812Z,1004.21
2023-05-15T03:45:58.078Z,1004.22
2023-05-15T03:46:58.368Z,1004.20
2023-05-15T03:47:58.630Z,1004.19
2023-05-15T03:48:58.865Z,1004.18
2023-05-15T03:49:59.264Z,1004.19
2023-05-15T03:50:59.545Z,1004.18
2023-05-15T03:51:59.826Z,1004.18
2023-05-15T03:53:00.121Z,1004.15
2023-05-15T03:54:00.362Z,1004.13
2023-05-15T03:55:00.678Z,1004.16
2023-05-15T03:56:00.927Z,1004.15
2023-05-15T03:57:01.303Z,1004.20
2023-05-15T03:58:01.808Z,1004.20
2023-05-15T03:59:01.877Z,1004.19
2023-05-15T04:00:02.161Z,1004.16
2023-05-15T04:01:02.433Z,1004.16
2023-05-15T04:02:05.457Z,1004.16
2023-05-15T04:03:03.077Z,1004.17
2023-05-15T04:04:03.322Z,1004.18
2023-05-15T04:05:03.643Z,1004.18
2023-05-15T04:06:03.880Z,1004.16
2023-05-15T04:07:04.126Z,1004.17
2023-05-15T04:08:04.404Z,1004.16
2023-05-15T04:09:05.566Z,1004.16
2023-05-15T04:10:05.129Z,1004.19
2023-05-15T04:11:05.458Z,1004.20
2023-05-15T04:12:05.718Z,1004.21
2023-05-15T04:13:05.975Z,1004.21
2023-05-15T04:14:06.336Z,1004.19
2023-05-15T04:15:06.594Z,1004.11
2023-05-15T04:16:06.852Z,1004.12
2023-05-15T04:17:07.247Z,1004.08
2023-05-15T04:18:07.531Z,1004.09
2023-05-15T04:19:07.831Z,1004.11
2023-05-15T04:20:08.127Z,1004.11
2023-05-15T04:21:09.317Z,1004.10
2023-05-15T04:22:08.729Z,1004.11
2023-05-15T04:23:09.104Z,1004.10
2023-05-15T04:24:09.347Z,1004.12
2023-05-15T04:25:09.786Z,1004.12
2023-05-15T04:26:10.007Z,1004.11
2023-05-15T04:27:10.262Z,1004.15
2023-05-15T04:28:10.757Z,1004.15
2023-05-15T04:29:10.898Z,1004.12
2023-05-15T04:30:11.172Z,1004.11
2023-05-15T04:31:12.415Z,1004.09
2023-05-15T04:32:11.904Z,1004.09
2023-05-15T04:33:12.203Z,1004.13
2023-05-15T04:34:12.475Z,1004.10
2023-05-15T04:35:12.867Z,1004.12
2023-05-15T04:36:13.122Z,1004.10
2023-05-15T04:37:13.494Z,1004.11
2023-05-15T04:38:13.746Z,1004.06
2023-05-15T04:39:14.032Z,1004.03
2023-05-15T04:40:14.282Z,1004.05
2023-05-15T04:41:14.526Z,1004.04
2023-05-15T04:42:14.786Z,1004.02
2023-05-15T04:43:15.056Z,1004.05
2023-05-15T04:44:15.296Z,1004.05
2023-05-15T04:45:15.681Z,1004.00
2023-05-15T04:46:15.949Z,1004.00
2023-05-15T04:47:16.284Z,1004.00
2023-05-15T04:48:16.597Z,1003.98
2023-05-15T04:49:16.958Z,1004.01
2023-05-15T04:50:17.220Z,1004.01
2023-05-15T04:51:17.451Z,1004.01
2023-05-15T04:52:17.816Z,1004.01
2023-05-15T04:53:18.181Z,1004.01
2023-05-15T04:54:18.355Z,1004.02
2023-05-15T04:55:18.759Z,1004.00
2023-05-15T04:56:19.033Z,1004.03
2023-05-15T04:57:19.288Z,1004.03
2023-05-15T04:58:19.555Z,1004.00
2023-05-15T04:59:19.883Z,1004.02
2023-05-15T05:00:20.352Z,1004.06
2023-05-15T05:01:20.639Z,1004.02
2023-05-15T05:02:20.869Z,1004.06
2023-05-15T05:03:21.201Z,1004.06
2023-05-15T05:04:21.439Z,1004.02
2023-05-15T05:05:21.810Z,1004.02
2023-05-15T05:06:22.059Z,1004.01
2023-05-15T05:07:22.341Z,1004.04
2023-05-15T05:08:22.634Z,1004.01
2023-05-15T05:09:22.905Z,1004.02
2023-05-15T05:10:23.170Z,1003.99
2023-05-15T05:11:23.399Z,1003.98
2023-05-15T05:12:24.290Z,1003.96
2023-05-15T05:13:23.927Z,1003.95
2023-05-15T05:14:24.276Z,1003.94
2023-05-15T05:15:24.814Z,1003.92
2023-05-15T05:16:24.880Z,1003.92
2023-05-15T05:17:25.122Z,1003.94
2023-05-15T05:18:25.344Z,1003.92
2023-05-15T05:19:25.573Z,1003.91
2023-05-15T05:20:25.839Z,1003.87
2023-05-15T05:21:26.078Z,1003.88
2023-05-15T05:22:26.353Z,1003.89
2023-05-15T05:23:26.575Z,1003.84
2023-05-15T05:24:26.922Z,1003.79
2023-05-15T05:25:27.367Z,1003.77
2023-05-15T05:26:27.524Z,1003.72
2023-05-15T05:27:27.786Z,1003.72
2023-05-15T05:28:27.995Z,1003.70
2023-05-15T05:29:28.357Z,1003.68
2023-05-15T05:30:28.612Z,1003.69
2023-05-15T05:31:28.898Z,1003.64
2023-05-15T05:32:29.126Z,1003.60
2023-05-15T05:33:29.437Z,1003.61
2023-05-15T05:34:29.693Z,1003.60
2023-05-15T05:35:29.941Z,1003.61
2023-05-15T05:36:30.184Z,1003.66
2023-05-15T05:37:30.416Z,1003.61
2023-05-15T05:38:30.651Z,1003.61
2023-05-15T05:39:31.073Z,1003.65
2023-05-15T05:40:31.251Z,1003.65
2023-05-15T05:41:31.488Z,1003.60
2023-05-15T05:42:31.728Z,1003.60
2023-05-15T05:43:31.965Z,1003.60
2023-05-15T05:44:32.204Z,1003.58
2023-05-15T05:45:32.484Z,1003.61
2023-05-15T05:46:32.750Z,1003.58
2023-05-15T05:47:32.994Z,1003.56
2023-05-15T05:48:33.191Z,1003.61
2023-05-15T05:49:33.449Z,1003.62
2023-05-15T05:50:33.636Z,1003.58
2023-05-15T05:51:33.967Z,1003.60
2023-05-15T05:52:34.211Z,1003.64
2023-05-15T05:53:41.573Z,1003.59
2023-05-15T05:54:34.755Z,1003.58
2023-05-15T05:55:35.113Z,1003.59
2023-05-15T05:56:36.953Z,1003.59
2023-05-15T05:57:35.625Z,1003.58
2023-05-15T05:58:35.838Z,1003.55
2023-05-15T05:59:36.176Z,1003.53
2023-05-15T06:00:36.413Z,1003.48
2023-05-15T06:01:36.648Z,1003.47
2023-05-15T06:02:36.912Z,1003.50
2023-05-15T06:03:37.251Z,1003.49
2023-05-15T06:04:37.554Z,1003.49
2023-05-15T06:05:37.792Z,1003.43
2023-05-15T06:06:37.998Z,1003.43
2023-05-15T06:07:38.327Z,1003.45
2023-05-15T06:08:38.535Z,1003.37
2023-05-15T06:09:38.871Z,1003.37
2023-05-15T06:10:39.094Z,1003.38
2023-05-15T06:11:39.311Z,1003.39
2023-05-15T06:12:39.518Z,1003.40
2023-05-15T06:13:39.836Z,1003.38
2023-05-15T06:14:40.040Z,1003.37
2023-05-15T06:15:40.346Z,1003.39
2023-05-15T06:16:40.633Z,1003.35
2023-05-15T06:17:40.933Z,1003.40
2023-05-15T06:18:41.200Z,1003.31
2023-05-15T06:19:42.025Z,1003.30
2023-05-15T06:20:41.575Z,1003.30
2023-05-15T06:21:41.844Z,1003.27
2023-05-15T06:22:43.015Z,1003.24
2023-05-15T06:23:42.357Z,1003.28
2023-05-15T06:24:42.568Z,1003.29
2023-05-15T06:25:42.849Z,1003.26
2023-05-15T06:26:43.066Z,1003.22
2023-05-15T06:27:43.289Z,1003.19
2023-05-15T06:28:43.505Z,1003.22
2023-05-15T06:29:43.715Z,1003.23
2023-05-15T06:30:43.924Z,1003.25
2023-05-15T06:31:45.294Z,1003.19
2023-05-15T06:32:44.488Z,1003.17
2023-05-15T06:33:44.740Z,1003.16
2023-05-15T06:34:44.976Z,1003.20
2023-05-15T06:35:45.207Z,1003.22
2023-05-15T06:36:45.437Z,1003.19
2023-05-15T06:37:46.569Z,1003.21
2023-05-15T06:38:45.863Z,1003.21
2023-05-15T06:39:46.160Z,1003.28
2023-05-15T06:40:46.479Z,1003.24
2023-05-15T06:41:46.687Z,1003.17
2023-05-15T06:42:46.886Z,1003.18
2023-05-15T06:43:47.081Z,1003.18
2023-05-15T06:44:47.264Z,1003.17
2023-05-15T06:45:47.528Z,1003.13
2023-05-15T06:46:47.854Z,1003.15
2023-05-15T06:47:48.038Z,1003.15
2023-05-15T06:48:48.227Z,1003.09
2023-05-15T06:49:48.437Z,1003.09
2023-05-15T06:50:48.639Z,1003.09
2023-05-15T06:51:48.829Z,1003.09
2023-05-15T06:52:49.127Z,1003.06
2023-05-15T06:53:49.316Z,1003.08
2023-05-15T06:54:49.512Z,1003.05
2023-05-15T06:55:49.702Z,1003.07
2023-05-15T06:56:50.848Z,1003.07
2023-05-15T06:57:50.212Z,1003.07
2023-05-15T06:58:50.431Z,1003.04
2023-05-15T06:59:50.613Z,1003.00
2023-05-15T07:00:50.833Z,1003.00
2023-05-15T07:01:51.022Z,1002.97
2023-05-15T07:02:51.219Z,1002.99
2023-05-15T07:03:51.458Z,1002.97
2023-05-15T07:04:51.702Z,1002.99
2023-05-15T07:05:51.926Z,1002.99
2023-05-15T07:06:52.108Z,1003.01
2023-05-15T07:07:52.295Z,1002.98
2023-05-15T07:08:52.485Z,1002.94
2023-05-15T07:09:52.662Z,1002.95
2023-05-15T07:10:52.873Z,1002.97
2023-05-15T07:11:53.089Z,1002.96
2023-05-15T07:12:53.254Z,1002.95
2023-05-15T07:13:53.568Z,1002.98
2023-05-15T07:14:53.738Z,1002.95
2023-05-15T07:15:57.158Z,1003.01
2023-05-15T07:16:54.239Z,1002.96
2023-05-15T07:17:54.498Z,1002.92
2023-05-15T07:18:54.661Z,1002.95
2023-05-15T07:19:54.803Z,1002.97
2023-05-15T07:20:55.007Z,1002.97
2023-05-15T07:21:55.195Z,1002.91
2023-05-15T07:22:56.918Z,1002.94
2023-05-15T07:23:56.622Z,1002.91
2023-05-15T07:24:55.913Z,1002.93
2023-05-15T07:25:56.093Z,1002.90
2023-05-15T07:26:58.692Z,1002.88
2023-05-15T07:27:56.459Z,1002.90
2023-05-15T07:28:56.641Z,1002.91
2023-05-15T07:29:56.833Z,1002.96
2023-05-15T07:30:57.005Z,1002.84
2023-05-15T07:31:57.296Z,1002.86
2023-05-15T07:32:57.401Z,1002.79
2023-05-15T07:33:57.598Z,1002.87
2023-05-15T07:34:57.747Z,1002.85
2023-05-15T07:35:57.904Z,1002.81
2023-05-15T07:36:58.097Z,1002.79
2023-05-15T07:37:58.265Z,1002.74
2023-05-15T07:38:58.400Z,1002.75
2023-05-15T07:39:58.694Z,1002.72
2023-05-15T07:40:59.600Z,1002.73
2023-05-15T07:41:58.881Z,1002.73
2023-05-15T07:42:59.050Z,1002.75
2023-05-15T07:44:00.192Z,1002.74
2023-05-15T07:44:59.449Z,1002.71
2023-05-15T07:45:59.636Z,1002.72
2023-05-15T07:46:59.759Z,1002.71
2023-05-15T07:47:59.974Z,1002.70
2023-05-15T07:49:00.149Z,1002.65
2023-05-15T07:50:00.269Z,1002.66
2023-05-15T07:51:00.478Z,1002.66
2023-05-15T07:52:04.449Z,1002.68
2023-05-15T07:53:00.807Z,1002.65
2023-05-15T07:54:01.017Z,1002.67
2023-05-15T07:55:01.311Z,1002.68
2023-05-15T07:56:01.435Z,1002.66
2023-05-15T07:57:01.604Z,1002.63
2023-05-15T07:58:01.840Z,1002.61
2023-05-15T07:59:02.088Z,1002.60
2023-05-15T08:00:02.254Z,1002.58
2023-05-15T08:01:02.446Z,1002.62
2023-05-15T08:02:02.725Z,1002.56
2023-05-15T08:03:02.977Z,1002.54
2023-05-15T08:04:03.146Z,1002.53
2023-05-15T08:05:03.203Z,1002.48
2023-05-15T08:06:03.400Z,1002.49
2023-05-15T08:07:03.615Z,1002.50
2023-05-15T08:08:03.829Z,1002.53
2023-05-15T08:09:04.037Z,1002.51
2023-05-15T08:10:04.321Z,1002.50
2023-05-15T08:11:04.496Z,1002.48
2023-05-15T08:12:04.788Z,1002.46
2023-05-15T08:13:05.946Z,1002.51
2023-05-15T08:14:05.305Z,1002.47
2023-05-15T08:15:05.505Z,1002.50
2023-05-15T08:16:05.752Z,1002.48
2023-05-15T08:17:05.966Z,1002.48
2023-05-15T08:18:06.255Z,1002.44
2023-05-15T08:19:06.482Z,1002.44
2023-05-15T08:20:06.625Z,1002.48
2023-05-15T08:21:06.972Z,1002.43
2023-05-15T08:22:07.049Z,1002.45
2023-05-15T08:23:07.785Z,1002.43
2023-05-15T08:24:07.676Z,1002.44
2023-05-15T08:25:07.702Z,1002.41
2023-05-15T08:26:08.875Z,1002.43
2023-05-15T08:27:08.073Z,1002.37
2023-05-15T08:28:08.445Z,1002.37
2023-05-15T08:29:08.534Z,1002.38
2023-05-15T08:30:08.690Z,1002.37
2023-05-15T08:31:09.101Z,1002.39
2023-05-15T08:32:09.248Z,1002.38
2023-05-15T08:33:09.531Z,1002.35
2023-05-15T08:34:09.628Z,1002.31
2023-05-15T08:35:09.886Z,1002.33
2023-05-15T08:36:10.102Z,1002.32
2023-05-15T08:37:10.267Z,1002.36
2023-05-15T08:38:11.406Z,1002.24
2023-05-15T08:39:10.682Z,1002.27
2023-05-15T08:40:10.904Z,1002.25
2023-05-15T08:41:11.104Z,1002.30
2023-05-15T08:42:11.255Z,1002.26
2023-05-15T08:43:11.426Z,1002.21
2023-05-15T08:44:11.602Z,1002.17
2023-05-15T08:45:11.762Z,1002.16
2023-05-15T08:46:11.965Z,1002.17
2023-05-15T08:47:12.205Z,1002.17
2023-05-15T08:48:12.394Z,1002.14
2023-05-15T08:49:12.906Z,1002.15
2023-05-15T08:50:13.833Z,1002.11
2023-05-15T08:51:13.027Z,1002.04
2023-05-15T08:52:13.197Z,1002.05
2023-05-15T08:53:13.429Z,1002.03
2023-05-15T08:54:13.594Z,1002.04
2023-05-15T08:55:13.803Z,1002.04
2023-05-15T08:56:14.303Z,1002.07
2023-05-15T08:57:14.290Z,1002.05
2023-05-15T08:58:14.683Z,1002.02
2023-05-15T08:59:14.633Z,1002.04
2023-05-15T09:00:15.150Z,1001.99
2023-05-15T09:01:15.142Z,1001.99
2023-05-15T09:02:15.285Z,1002.04
2023-05-15T09:03:15.558Z,1002.05
2023-05-15T09:04:15.745Z,1002.05
2023-05-15T09:05:16.023Z,1002.03
2023-05-15T09:06:16.237Z,1002.06
2023-05-15T09:07:16.527Z,1002.03
2023-05-15T09:08:16.704Z,1002.02
2023-05-15T09:09:16.873Z,1002.00
2023-05-15T09:10:17.054Z,1001.99
2023-05-15T09:11:17.271Z,1001.98
2023-05-15T09:12:17.474Z,1001.95
2023-05-15T09:13:17.688Z,1001.98
2023-05-15T09:14:18.592Z,1001.98
2023-05-15T09:15:18.236Z,1001.94
2023-05-15T09:16:18.352Z,1001.95
2023-05-15T09:17:18.643Z,1001.96
2023-05-15T09:18:18.856Z,1001.95
2023-05-15T09:19:19.073Z,1001.96
2023-05-15T09:20:19.296Z,1001.95
2023-05-15T09:21:20.434Z,1001.98
2023-05-15T09:22:19.756Z,1001.97
2023-05-15T09:23:19.952Z,1001.95
2023-05-15T09:24:20.150Z,1001.97
2023-05-15T09:25:20.409Z,1001.95
2023-05-15T09:26:20.702Z,1001.93
2023-05-15T09:27:20.995Z,1001.94
2023-05-15T09:28:21.225Z,1001.91
2023-05-15T09:29:21.415Z,1001.92
2023-05-15T09:30:21.631Z,1001.89
2023-05-15T09:31:21.889Z,1001.89
2023-05-15T09:32:22.197Z,1001.90
2023-05-15T09:33:22.253Z,1001.91
2023-05-15T09:34:22.469Z,1001.94
2023-05-15T09:35:22.963Z,1001.93
2023-05-15T09:36:22.941Z,1001.91
2023-05-15T09:37:23.233Z,1001.90
2023-05-15T09:38:23.470Z,1001.92
2023-05-15T09:39:23.748Z,1001.90
2023-05-15T09:40:23.877Z,1001.89
2023-05-15T09:41:24.207Z,1001.90
2023-05-15T09:42:24.514Z,1001.87
2023-05-15T09:43:24.733Z,1001.87
2023-05-15T09:44:25.056Z,1001.87
2023-05-15T09:45:25.445Z,1001.83
2023-05-15T09:46:25.514Z,1001.82
2023-05-15T09:47:25.803Z,1001.82
2023-05-15T09:48:25.939Z,1001.83
2023-05-15T09:49:26.185Z,1001.82
2023-05-15T09:50:26.379Z,1001.85
2023-05-15T09:51:26.536Z,1001.79
2023-05-15T09:52:26.723Z,1001.78
2023-05-15T09:53:26.898Z,1001.81
2023-05-15T09:54:27.083Z,1001.78
2023-05-15T09:55:27.313Z,1001.77
2023-05-15T09:56:27.489Z,1001.74
2023-05-15T09:57:27.695Z,1001.73
2023-05-15T09:58:27.859Z,1001.71
2023-05-15T09:59:28.110Z,1001.73
2023-05-15T10:00:29.125Z,1001.71
2023-05-15T10:01:29.519Z,1001.72
2023-05-15T10:02:28.834Z,1001.72
2023-05-15T10:03:29.093Z,1001.71
2023-05-15T10:04:29.179Z,1001.68
2023-05-15T10:05:42.499Z,1001.66
2023-05-15T10:06:30.636Z,1001.66
2023-05-15T10:07:30.100Z,1001.68
2023-05-15T10:08:30.006Z,1001.62
2023-05-15T10:09:30.273Z,1001.64
2023-05-15T10:10:30.438Z,1001.62
2023-05-15T10:11:30.958Z,1001.67
2023-05-15T10:12:30.811Z,1001.63
2023-05-15T10:13:30.973Z,1001.65
2023-05-15T10:14:31.148Z,1001.66
2023-05-15T10:15:31.316Z,1001.63
2023-05-15T10:16:31.523Z,1001.61
2023-05-15T10:17:31.793Z,1001.64
2023-05-15T10:18:31.948Z,1001.60
2023-05-15T10:19:32.107Z,1001.64
2023-05-15T10:20:32.282Z,1001.61
2023-05-15T10:21:32.472Z,1001.65
2023-05-15T10:22:32.651Z,1001.65
2023-05-15T10:23:32.823Z,1001.66
2023-05-15T10:24:33.017Z,1001.67
2023-05-15T10:25:33.351Z,1001.67
2023-05-15T10:26:33.396Z,1001.67
2023-05-15T10:27:33.572Z,1001.68
2023-05-15T10:28:33.718Z,1001.67
2023-05-15T10:29:33.881Z,1001.62
2023-05-15T10:30:34.041Z,1001.63
2023-05-15T10:31:34.196Z,1001.63
2023-05-15T10:32:34.384Z,1001.65
2023-05-15T10:33:34.576Z,1001.62
2023-05-15T10:34:34.690Z,1001.60
2023-05-15T10:35:34.844Z,1001.57
2023-05-15T10:36:34.982Z,1001.62
2023-05-15T10:37:35.203Z,1001.63
2023-05-15T10:38:35.359Z,1001.56
2023-05-15T10:39:35.520Z,1001.59
2023-05-15T10:40:35.668Z,1001.53
2023-05-15T10:41:35.881Z,1001.58
2023-05-15T10:42:36.061Z,1001.55
2023-05-15T10:43:36.248Z,1001.52
2023-05-15T10:44:36.395Z,1001.50
2023-05-15T10:45:36.548Z,1001.50
2023-05-15T10:46:36.771Z,1001.54
2023-05-15T10:47:37.961Z,1001.52
2023-05-15T10:48:37.161Z,1001.50
2023-05-15T10:49:37.330Z,1001.55
2023-05-15T10:50:37.478Z,1001.50
2023-05-15T10:51:37.659Z,1001.47
2023-05-15T10:52:37.822Z,1001.41
2023-05-15T10:53:37.996Z,1001.41
2023-05-15T10:54:38.163Z,1001.46
2023-05-15T10:55:39.315Z,1001.48
2023-05-15T10:56:38.596Z,1001.45
2023-05-15T10:57:38.805Z,1001.41
2023-05-15T10:58:39.274Z,1001.43
2023-05-15T10:59:39.246Z,1001.39
2023-05-15T11:00:39.663Z,1001.41
2023-05-15T11:01:39.763Z,1001.40
2023-05-15T11:02:39.936Z,1001.37
2023-05-15T11:03:48.520Z,1001.32
2023-05-15T11:04:41.352Z,1001.38
2023-05-15T11:05:40.417Z,1001.38
2023-05-15T11:06:40.609Z,1001.37
2023-05-15T11:07:40.888Z,1001.33
2023-05-15T11:08:40.956Z,1001.29
2023-05-15T11:09:41.137Z,1001.33
2023-05-15T11:10:41.309Z,1001.27
2023-05-15T11:11:41.659Z,1001.25
2023-05-15T11:12:41.818Z,1001.24
2023-05-15T11:13:42.163Z,1001.22
2023-05-15T11:14:42.274Z,1001.21
2023-05-15T11:15:42.483Z,1001.20
2023-05-15T11:16:42.702Z,1001.17
2023-05-15T11:17:42.896Z,1001.24
2023-05-15T11:18:43.088Z,1001.18
2023-05-15T11:19:43.271Z,1001.16
2023-05-15T11:20:43.453Z,1001.17
2023-05-15T11:21:43.667Z,1001.16
2023-05-15T11:22:43.883Z,1001.19
2023-05-15T11:23:44.084Z,1001.07
2023-05-15T11:24:44.329Z,1001.11
2023-05-15T11:25:44.509Z,1001.09
2023-05-15T11:26:44.661Z,1001.03
2023-05-15T11:27:45.038Z,1001.02
2023-05-15T11:28:45.216Z,1000.99
2023-05-15T11:29:45.392Z,1001.01
2023-05-15T11:30:45.685Z,1001.00
2023-05-15T11:31:45.850Z,1000.98
2023-05-15T11:32:46.051Z,1000.97
2023-05-15T11:33:46.237Z,1000.97
2023-05-15T11:34:46.418Z,1000.95
2023-05-15T11:35:46.643Z,1000.95
2023-05-15T11:36:46.761Z,1000.95
2023-05-15T11:37:46.940Z,1000.92
2023-05-15T11:38:47.109Z,1000.91
2023-05-15T11:39:47.278Z,1000.91
2023-05-15T11:40:47.472Z,1000.94
2023-05-15T11:41:47.649Z,1000.93
2023-05-15T11:42:48.099Z,1000.91
2023-05-15T11:43:48.041Z,1000.88
2023-05-15T11:44:48.189Z,1000.88
2023-05-15T11:45:48.466Z,1000.88
2023-05-15T11:46:48.757Z,1000.86
2023-05-15T11:47:48.806Z,1000.86
2023-05-15T11:48:48.975Z,1000.87
2023-05-15T11:49:49.125Z,1000.89
2023-05-15T11:50:49.334Z,1000.88
2023-05-15T11:51:50.030Z,1000.84
2023-05-15T11:52:49.627Z,1000.79
2023-05-15T11:53:56.909Z,1000.81
2023-05-15T11:54:52.664Z,1000.81
2023-05-15T11:55:50.275Z,1000.88
2023-05-15T11:56:50.431Z,1000.80
2023-05-15T11:57:50.596Z,1000.78
2023-05-15T11:58:50.836Z,1000.74
2023-05-15T11:59:50.978Z,1000.80
2023-05-15T12:00:51.110Z,1000.77
2023-05-15T12:01:51.248Z,1000.74
2023-05-15T12:02:51.442Z,1000.72
2023-05-15T12:03:51.730Z,1000.77
2023-05-15T12:04:51.827Z,1000.72
2023-05-15T12:05:59.199Z,1000.67
2023-05-15T12:06:53.042Z,1000.68
2023-05-15T12:07:52.162Z,1000.64
2023-05-15T12:08:52.254Z,1000.64